createdAt,value
2023-05-16T00:02:20.178Z,2.88
2023-05-16T00:04:48.724Z,3.85
2023-05-16T00:07:17.021Z,3.13
2023-05-16T00:09:45.261Z,3.22
2023-05-16T00:12:13.507Z,2.90
2023-05-16T00:14:43.209Z,3.65
2023-05-16T00:17:12.571Z,3.33
2023-05-16T00:19:42.323Z,3.25
2023-05-16T00:22:11.533Z,3.95
2023-05-16T00:24:39.909Z,3.10
2023-05-16T00:27:08.123Z,3.08
2023-05-16T00:29:36.663Z,3.40
2023-05-16T00:32:08.876Z,2.70
2023-05-16T00:34:37.582Z,3.55
2023-05-16T00:37:06.321Z,4.05
2023-05-16T00:39:34.548Z,3.35
2023-05-16T00:42:02.946Z,3.40
2023-05-16T00:44:33.031Z,3.00
2023-05-16T00:47:02.813Z,3.67
2023-05-16T00:49:32.777Z,2.78
2023-05-16T00:52:01.371Z,2.70
2023-05-16T00:54:31.371Z,3.67
2023-05-16T00:56:59.767Z,3.78
2023-05-16T00:59:28.796Z,3.33
2023-05-16T01:01:57.124Z,3.25
2023-05-16T01:04:26.694Z,3.08
2023-05-16T01:06:57.945Z,3.30
2023-05-16T01:09:26.324Z,2.78
2023-05-16T01:12:03.294Z,3.05
2023-05-16T01:14:42.777Z,2.95
2023-05-16T01:17:21.608Z,3.20
2023-05-16T01:20:06.499Z,3.00
2023-05-16T01:22:49.049Z,3.50
2023-05-16T01:25:28.435Z,2.85
2023-05-16T01:27:59.624Z,3.22
2023-05-16T01:30:27.964Z,2.75
2023-05-16T01:32:56.266Z,2.65
2023-05-16T01:35:26.583Z,2.70
2023-05-16T01:38:06.125Z,2.00
2023-05-16T01:40:42.420Z,2.78
2023-05-16T01:43:15.528Z,3.15
2023-05-16T01:45:52.352Z,2.45
2023-05-16T01:48:24.531Z,2.78
2023-05-16T01:50:56.184Z,3.22
2023-05-16T01:53:29.506Z,2.92
2023-05-16T01:55:59.608Z,2.58
2023-05-16T01:58:33.065Z,2.10
2023-05-16T02:01:03.370Z,2.78
2023-05-16T02:03:31.791Z,2.70
2023-05-16T02:06:00.130Z,3.08
2023-05-16T02:08:29.582Z,3.17
2023-05-16T02:10:57.867Z,2.85
2023-05-16T02:13:26.129Z,2.78
2023-05-16T02:15:55.822Z,2.50
2023-05-16T02:18:24.767Z,2.50
2023-05-16T02:20:53.233Z,1.98
2023-05-16T02:23:21.678Z,2.83
2023-05-16T02:25:50.533Z,2.40
2023-05-16T02:28:18.807Z,3.08
2023-05-16T02:30:47.106Z,3.00
2023-05-16T02:33:16.811Z,3.40
2023-05-16T02:35:45.097Z,2.05
2023-05-16T02:38:17.567Z,2.65
2023-05-16T02:40:46.206Z,2.50
2023-05-16T02:43:14.406Z,2.35
2023-05-16T02:45:44.178Z,3.67
2023-05-16T02:48:12.949Z,2.63
2023-05-16T02:50:43.981Z,2.70
2023-05-16T02:53:12.321Z,2.72
2023-05-16T02:55:40.894Z,2.72
2023-05-16T02:58:09.329Z,2.28
2023-05-16T03:00:37.618Z,2.95
2023-05-16T03:03:06.289Z,2.83
2023-05-16T03:05:34.788Z,2.35
2023-05-16T03:08:04.430Z,2.70
2023-05-16T03:10:35.405Z,2.25
2023-05-16T03:13:03.659Z,2.80
2023-05-16T03:15:31.975Z,2.10
2023-05-16T03:18:00.844Z,2.78
2023-05-16T03:20:29.133Z,2.67
2023-05-16T03:22:58.094Z,3.20
2023-05-16T03:25:28.150Z,2.85
2023-05-16T03:27:56.841Z,3.20
2023-05-16T03:30:26.578Z,2.33
2023-05-16T03:32:54.964Z,3.00
2023-05-16T03:35:24.753Z,2.75
2023-05-16T03:37:53.124Z,2.97
2023-05-16T03:40:21.817Z,2.67
2023-05-16T03:42:51.583Z,2.75
2023-05-16T03:45:19.984Z,2.78
2023-05-16T03:47:49.933Z,2.38
2023-05-16T03:50:18.352Z,2.40
2023-05-16T03:52:46.607Z,2.65
2023-05-16T03:55:15.446Z,3.10
2023-05-16T03:57:44.136Z,2.70
2023-05-16T04:00:14.921Z,2.50
2023-05-16T04:02:44.020Z,2.55
2023-05-16T04:05:14.084Z,2.58
2023-05-16T04:07:43.011Z,2.53
2023-05-16T04:10:12.599Z,2.80
2023-05-16T04:12:40.809Z,2.38
2023-05-16T04:15:09.865Z,2.50
2023-05-16T04:17:40.237Z,2.83
2023-05-16T04:20:09.187Z,2.45
2023-05-16T04:22:37.521Z,2.72
2023-05-16T04:25:06.320Z,2.95
2023-05-16T04:27:34.601Z,3.20
2023-05-16T04:30:03.006Z,2.70
2023-05-16T04:32:34.690Z,2.30
2023-05-16T04:35:04.574Z,2.30
2023-05-16T04:37:32.918Z,2.55
2023-05-16T04:40:01.249Z,2.85
2023-05-16T04:42:29.552Z,2.83
2023-05-16T04:44:58.716Z,2.60
2023-05-16T04:47:27.032Z,2.28
2023-05-16T04:49:55.330Z,2.65
2023-05-16T04:52:25.104Z,2.78
2023-05-16T04:54:53.475Z,2.40
2023-05-16T04:57:21.812Z,2.85
2023-05-16T04:59:50.088Z,2.30
2023-05-16T05:02:18.372Z,2.53
2023-05-16T05:04:46.807Z,2.58
2023-05-16T05:07:15.237Z,2.42
2023-05-16T05:09:44.912Z,2.70
2023-05-16T05:12:13.284Z,2.53
2023-05-16T05:14:41.551Z,2.40
2023-05-16T05:17:09.877Z,2.22
2023-05-16T05:19:38.294Z,2.65
2023-05-16T05:22:07.010Z,2.35
2023-05-16T05:24:35.311Z,2.30
2023-05-16T05:27:05.113Z,2.28
2023-05-16T05:29:34.049Z,2.60
2023-05-16T05:32:02.435Z,2.35
2023-05-16T05:34:30.862Z,3.33
2023-05-16T05:36:59.148Z,2.10
2023-05-16T05:39:27.807Z,2.33
2023-05-16T05:41:56.181Z,2.08
2023-05-16T05:44:25.928Z,2.63
2023-05-16T05:46:54.426Z,2.30
2023-05-16T05:49:23.418Z,2.47
2023-05-16T05:51:52.377Z,2.92
2023-05-16T05:54:21.177Z,2.30
2023-05-16T05:56:49.525Z,2.75
2023-05-16T05:59:18.003Z,1.80
2023-05-16T06:01:47.684Z,1.95
2023-05-16T06:04:15.948Z,2.40
2023-05-16T06:06:44.208Z,1.90
2023-05-16T06:09:12.797Z,2.10
2023-05-16T06:11:41.309Z,1.88
2023-05-16T06:14:09.607Z,1.77
2023-05-16T06:16:39.513Z,1.70
2023-05-16T06:19:09.329Z,2.22
2023-05-16T06:21:38.025Z,1.88
2023-05-16T06:24:06.546Z,2.25
2023-05-16T06:26:35.096Z,2.33
2023-05-16T06:29:03.349Z,2.17
2023-05-16T06:31:32.417Z,2.22
2023-05-16T06:34:00.874Z,1.80
2023-05-16T06:36:31.196Z,2.05
2023-05-16T06:38:59.476Z,1.83
2023-05-16T06:41:27.833Z,1.95
2023-05-16T06:43:56.124Z,1.85
2023-05-16T06:46:24.747Z,1.95
2023-05-16T06:48:53.178Z,2.05
2023-05-16T06:51:21.474Z,1.85
2023-05-16T06:53:51.153Z,2.33
2023-05-16T06:56:19.539Z,1.85
2023-05-16T06:58:49.622Z,1.90
2023-05-16T07:01:18.073Z,1.92
2023-05-16T07:03:46.476Z,2.58
2023-05-16T07:06:14.891Z,1.60
2023-05-16T07:08:43.215Z,1.98
2023-05-16T07:11:12.935Z,1.75
2023-05-16T07:13:41.251Z,2.00
2023-05-16T07:16:09.584Z,2.42
2023-05-16T07:18:38.023Z,2.25
2023-05-16T07:21:06.749Z,2.30
2023-05-16T07:23:35.060Z,2.05
2023-05-16T07:26:03.499Z,2.10
2023-05-16T07:28:33.234Z,2.00
2023-05-16T07:31:01.537Z,2.25
2023-05-16T07:33:29.943Z,1.88
2023-05-16T07:36:11.956Z,2.00
2023-05-16T07:38:44.341Z,2.30
2023-05-16T07:41:12.732Z,2.05
2023-05-16T07:43:42.491Z,2.05
2023-05-16T07:46:11.629Z,1.88
2023-05-16T07:48:39.970Z,1.70
2023-05-16T07:51:08.779Z,1.98
2023-05-16T07:53:37.349Z,1.92
2023-05-16T07:56:06.910Z,2.17
2023-05-16T07:58:35.553Z,2.20
2023-05-16T08:01:05.769Z,2.00
2023-05-16T08:03:34.352Z,2.20
2023-05-16T08:06:02.970Z,1.65
2023-05-16T08:08:31.374Z,1.83
2023-05-16T08:10:59.729Z,1.60
2023-05-16T08:13:28.105Z,1.73
2023-05-16T08:15:56.472Z,1.70
2023-05-16T08:18:26.186Z,1.88
2023-05-16T08:20:54.538Z,2.05
2023-05-16T08:23:23.039Z,2.25
2023-05-16T08:25:51.392Z,2.20
2023-05-16T08:28:19.724Z,2.17
2023-05-16T08:30:48.192Z,2.03
2023-05-16T08:33:16.743Z,1.95
2023-05-16T08:35:46.716Z,2.33
2023-05-16T08:38:15.003Z,1.50
2023-05-16T08:40:45.215Z,1.50
2023-05-16T08:43:14.011Z,1.33
2023-05-16T08:45:42.939Z,1.83
2023-05-16T08:48:12.603Z,1.35
2023-05-16T08:50:42.892Z,1.75
2023-05-16T08:53:15.991Z,1.98
2023-05-16T08:55:47.001Z,2.00
2023-05-16T08:58:15.993Z,2.58
2023-05-16T09:00:44.911Z,1.98
2023-05-16T09:03:13.549Z,2.20
2023-05-16T09:05:42.505Z,1.70
2023-05-16T09:08:12.248Z,1.58
2023-05-16T09:10:40.580Z,1.20
2023-05-16T09:13:08.900Z,1.15
2023-05-16T09:15:37.296Z,1.23
2023-05-16T09:18:05.756Z,1.27
2023-05-16T09:20:34.249Z,1.50
2023-05-16T09:23:03.372Z,1.58
2023-05-16T09:25:33.183Z,2.15
2023-05-16T09:28:03.573Z,1.52
2023-05-16T09:30:34.271Z,2.08
2023-05-16T09:33:03.247Z,1.92
2023-05-16T09:38:04.142Z,1.50
2023-05-16T09:40:34.031Z,1.40
2023-05-16T09:43:07.990Z,1.58
2023-05-16T09:45:38.046Z,1.65
2023-05-16T09:48:08.375Z,1.48
2023-05-16T09:50:38.656Z,1.05
2023-05-16T09:53:07.223Z,1.45
2023-05-16T09:55:36.892Z,0.82
2023-05-16T09:58:06.899Z,1.60
2023-05-16T10:00:35.742Z,0.90
2023-05-16T10:03:05.851Z,1.20
2023-05-16T10:05:35.921Z,1.42
2023-05-16T10:08:05.588Z,1.38
2023-05-16T10:10:39.771Z,1.50
2023-05-16T10:13:09.933Z,1.70
2023-05-16T10:15:39.316Z,1.50
2023-05-16T10:18:13.251Z,1.92
2023-05-16T10:20:43.726Z,1.10
2023-05-16T10:23:17.691Z,1.42
2023-05-16T10:25:48.664Z,1.30
2023-05-16T10:28:17.890Z,1.25
2023-05-16T10:30:47.455Z,1.30
2023-05-16T10:33:19.827Z,1.50
2023-05-16T10:35:48.459Z,1.50
2023-05-16T10:38:19.660Z,1.92
2023-05-16T10:40:50.728Z,1.77
2023-05-16T10:43:26.959Z,1.98
2023-05-16T10:45:59.804Z,2.20
2023-05-16T10:48:32.802Z,1.67
2023-05-16T10:51:02.860Z,1.17
2023-05-16T10:53:32.692Z,1.35
2023-05-16T10:56:11.395Z,1.48
2023-05-16T10:58:48.242Z,1.60
2023-05-16T11:01:18.549Z,2.17
2023-05-16T11:04:07.431Z,1.80
2023-05-16T11:06:37.233Z,1.38
2023-05-16T11:09:19.332Z,1.65
2023-05-16T11:11:55.735Z,1.35
2023-05-16T11:14:25.615Z,1.05
2023-05-16T11:16:56.370Z,1.42
2023-05-16T11:19:33.402Z,1.20
2023-05-16T11:22:25.042Z,1.40
2023-05-16T11:24:57.226Z,1.30
2023-05-16T11:27:29.345Z,1.92
2023-05-16T11:30:03.714Z,1.50
2023-05-16T11:32:35.040Z,1.58
2023-05-16T11:35:04.721Z,1.92
2023-05-16T11:37:33.086Z,1.88
2023-05-16T11:40:02.303Z,1.70
2023-05-16T11:42:35.745Z,1.52
2023-05-16T11:45:08.863Z,1.65
2023-05-16T11:47:39.683Z,2.28
2023-05-16T11:50:10.083Z,2.35
2023-05-16T11:52:41.724Z,2.50
2023-05-16T11:55:11.529Z,1.83
2023-05-16T11:57:42.139Z,1.80
2023-05-16T12:00:17.850Z,2.08
2023-05-16T12:02:47.792Z,2.15
2023-05-16T12:05:17.407Z,2.20
2023-05-16T12:07:46.237Z,2.17
2023-05-16T12:10:15.968Z,2.20
2023-05-16T12:12:48.100Z,2.03
2023-05-16T12:15:17.355Z,1.92
2023-05-16T12:17:47.087Z,2.20
2023-05-16T12:20:16.828Z,2.17
2023-05-16T12:22:46.277Z,2.08
2023-05-16T12:25:26.941Z,1.70
2023-05-16T12:27:59.092Z,2.20
2023-05-16T12:30:29.483Z,2.13
2023-05-16T12:32:58.669Z,2.00
2023-05-16T12:35:27.395Z,2.15
2023-05-16T12:37:56.273Z,2.05
2023-05-16T12:40:25.097Z,2.33
2023-05-16T12:42:54.841Z,2.17
2023-05-16T12:45:25.072Z,2.63
2023-05-16T12:47:53.609Z,2.25
2023-05-16T12:50:23.139Z,2.10
2023-05-16T12:52:52.389Z,2.25
2023-05-16T12:55:21.921Z,2.47
2023-05-16T12:57:51.242Z,2.85
2023-05-16T13:00:21.837Z,3.05
2023-05-16T13:02:52.318Z,2.38
2023-05-16T13:05:23.470Z,3.10
2023-05-16T13:07:52.856Z,2.28
2023-05-16T13:10:21.351Z,3.13
2023-05-16T13:12:49.592Z,2.65
2023-05-16T13:15:18.172Z,2.17
2023-05-16T13:17:47.755Z,2.60
2023-05-16T13:20:17.538Z,2.75
2023-05-16T13:22:46.694Z,2.65
2023-05-16T13:25:15.027Z,2.75
2023-05-16T13:27:43.527Z,2.72
2023-05-16T13:30:12.383Z,3.10
2023-05-16T13:32:40.754Z,2.95
2023-05-16T13:35:09.830Z,3.08
2023-05-16T13:37:39.741Z,3.08
2023-05-16T13:40:10.709Z,3.60
2023-05-16T13:42:39.417Z,3.60
2023-05-16T13:45:08.490Z,3.38
2023-05-16T13:47:37.079Z,3.58
2023-05-16T13:50:10.256Z,3.75
2023-05-16T13:52:41.040Z,3.85
2023-05-16T13:55:09.994Z,3.53
2023-05-16T13:57:38.494Z,4.30
2023-05-16T14:02:44.510Z,3.97
2023-05-16T14:05:12.962Z,3.72
2023-05-16T14:07:44.726Z,3.75
2023-05-16T14:10:14.577Z,3.90
2023-05-16T14:12:42.940Z,4.15
2023-05-16T14:15:11.778Z,3.65
2023-05-16T14:17:40.248Z,3.53
2023-05-16T14:20:10.834Z,3.67
2023-05-16T14:22:39.728Z,2.78
2023-05-16T14:25:10.376Z,2.80
2023-05-16T14:27:38.829Z,3.40
2023-05-16T14:30:09.617Z,3.38
2023-05-16T14:32:38.154Z,2.83
2023-05-16T14:35:07.227Z,3.20
2023-05-16T14:37:35.614Z,2.75
2023-05-16T14:40:05.569Z,3.00
2023-05-16T14:42:35.293Z,2.70
2023-05-16T14:45:03.830Z,3.50
2023-05-16T14:47:32.302Z,3.45
2023-05-16T14:50:01.317Z,3.58
2023-05-16T14:52:29.929Z,3.88
2023-05-16T14:54:58.227Z,3.05
2023-05-16T14:57:26.571Z,3.67
2023-05-16T14:59:56.447Z,3.50
2023-05-16T15:02:24.705Z,3.30
2023-05-16T15:04:55.450Z,3.30
2023-05-16T15:07:23.824Z,3.38
2023-05-16T15:09:52.439Z,3.13
2023-05-16T15:12:20.781Z,3.85
2023-05-16T15:14:49.075Z,3.90
2023-05-16T15:17:18.762Z,3.13
2023-05-16T15:19:47.980Z,3.03
2023-05-16T15:22:16.289Z,3.95
2023-05-16T15:24:44.645Z,3.70
2023-05-16T15:27:13.025Z,3.90
2023-05-16T15:29:41.410Z,3.70
2023-05-16T15:32:11.399Z,3.38
2023-05-16T15:34:41.254Z,3.20
2023-05-16T15:37:09.579Z,3.30
2023-05-16T15:39:38.287Z,3.05
2023-05-16T15:42:11.078Z,2.80
2023-05-16T15:44:40.166Z,3.20
2023-05-16T15:47:08.916Z,3.45
2023-05-16T15:49:37.908Z,3.00
2023-05-16T15:52:08.214Z,3.10
2023-05-16T15:54:37.980Z,3.22
2023-05-16T15:57:07.037Z,2.85
2023-05-16T15:59:35.857Z,3.03
2023-05-16T16:02:05.603Z,3.30
2023-05-16T16:04:34.119Z,2.85
2023-05-16T16:07:02.486Z,3.08
2023-05-16T16:09:32.503Z,3.30
2023-05-16T16:12:01.265Z,3.38
2023-05-16T16:14:30.219Z,2.70
2023-05-16T16:16:58.591Z,2.92
2023-05-16T16:19:27.052Z,2.90
2023-05-16T16:21:55.518Z,3.58
2023-05-16T16:24:23.842Z,2.65
2023-05-16T16:26:53.710Z,2.85
2023-05-16T16:29:22.071Z,2.63
2023-05-16T16:31:50.673Z,3.13
2023-05-16T16:34:20.343Z,3.30
2023-05-16T16:36:50.733Z,3.47
2023-05-16T16:39:19.128Z,3.28
2023-05-16T16:41:47.453Z,3.08
2023-05-16T16:44:17.172Z,3.22
2023-05-16T16:46:45.813Z,2.75
2023-05-16T16:49:14.183Z,2.70
2023-05-16T16:51:42.788Z,3.17
2023-05-16T16:54:11.194Z,3.33
2023-05-16T16:56:39.518Z,2.60
2023-05-16T16:59:07.906Z,2.40
2023-05-16T17:01:37.693Z,2.53
2023-05-16T17:04:06.413Z,3.10
2023-05-16T17:06:35.094Z,2.40
2023-05-16T17:09:06.510Z,2.65
2023-05-16T17:11:36.416Z,2.63
2023-05-16T17:14:06.340Z,2.92
2023-05-16T17:16:35.262Z,2.80
2023-05-16T17:19:05.542Z,2.67
2023-05-16T17:21:34.774Z,3.00
2023-05-16T17:24:03.695Z,2.45
2023-05-16T17:26:32.113Z,2.75
2023-05-16T17:29:01.292Z,2.80
2023-05-16T17:31:29.711Z,2.90
2023-05-16T17:33:58.083Z,2.90
2023-05-16T17:36:27.847Z,2.92
2023-05-16T17:38:56.315Z,2.40
2023-05-16T17:41:24.727Z,2.97
2023-05-16T17:43:53.565Z,2.65
2023-05-16T17:46:21.908Z,2.72
2023-05-16T17:48:50.362Z,3.08
2023-05-16T17:51:21.398Z,2.90
2023-05-16T17:53:51.711Z,2.83
2023-05-16T17:56:20.180Z,3.25
2023-05-16T17:58:48.481Z,2.88
2023-05-16T18:01:17.340Z,2.90
2023-05-16T18:03:45.813Z,2.97
2023-05-16T18:06:14.256Z,3.00
2023-05-16T18:08:42.681Z,3.60
2023-05-16T18:11:12.442Z,3.40
2023-05-16T18:13:40.848Z,3.80
2023-05-16T18:16:12.931Z,3.30
2023-05-16T18:18:41.722Z,3.10
2023-05-16T18:21:10.216Z,3.50
2023-05-16T18:23:38.582Z,3.22
2023-05-16T18:26:06.897Z,3.13
2023-05-16T18:28:36.649Z,3.30
2023-05-16T18:31:05.159Z,3.28
2023-05-16T18:33:33.449Z,4.05
2023-05-16T18:36:01.735Z,3.22
2023-05-16T18:38:33.126Z,4.00
2023-05-16T18:41:02.460Z,3.50
2023-05-16T18:43:31.043Z,3.28
2023-05-16T18:46:00.751Z,3.15
2023-05-16T18:48:29.310Z,3.55
2023-05-16T18:50:57.723Z,3.42
2023-05-16T18:53:26.237Z,3.30
2023-05-16T18:55:54.686Z,3.53
2023-05-16T18:58:23.089Z,3.53
2023-05-16T19:00:51.713Z,3.20
2023-05-16T19:03:21.913Z,3.80
2023-05-16T19:05:50.589Z,3.63
2023-05-16T19:08:19.052Z,3.20
2023-05-16T19:10:47.454Z,3.47
2023-05-16T19:13:15.837Z,3.72
2023-05-16T19:15:44.528Z,3.42
2023-05-16T19:18:13.245Z,4.18
2023-05-16T19:20:44.975Z,4.18
2023-05-16T19:23:14.164Z,3.60
2023-05-16T19:25:47.377Z,3.67
2023-05-16T19:28:16.540Z,3.97
2023-05-16T19:30:45.080Z,4.45
2023-05-16T19:33:13.476Z,4.05
2023-05-16T19:35:43.297Z,4.25
2023-05-16T19:38:11.592Z,4.13
2023-05-16T19:40:39.954Z,4.43
2023-05-16T19:43:08.280Z,4.20
2023-05-16T19:45:36.666Z,4.55
2023-05-16T19:48:05.448Z,4.82
2023-05-16T19:50:33.919Z,4.82
2023-05-16T19:53:04.180Z,4.78
2023-05-16T19:55:33.996Z,5.65
2023-05-16T19:58:03.485Z,4.88
2023-05-16T20:00:31.852Z,5.53
2023-05-16T20:03:00.364Z,5.28
2023-05-16T20:05:29.076Z,5.18
2023-05-16T20:07:58.189Z,5.07
2023-05-16T20:10:27.914Z,5.75
2023-05-16T20:12:56.203Z,5.32
2023-05-16T20:15:24.942Z,5.30
2023-05-16T20:17:53.410Z,5.95
2023-05-16T20:20:22.065Z,4.55
2023-05-16T20:22:50.345Z,5.18
2023-05-16T20:25:18.721Z,5.63
2023-05-16T20:27:48.511Z,5.28
2023-05-16T20:30:16.850Z,5.28
2023-05-16T20:32:45.257Z,5.18
2023-05-16T20:35:14.897Z,5.30
2023-05-16T20:37:43.268Z,5.97
2023-05-16T20:40:12.112Z,4.85
2023-05-16T20:42:40.630Z,5.45
2023-05-16T20:45:11.564Z,5.65
2023-05-16T20:47:40.028Z,5.40
2023-05-16T20:50:09.493Z,5.07
2023-05-16T20:52:37.779Z,5.35
2023-05-16T20:55:06.904Z,5.07
2023-05-16T20:57:35.308Z,5.35
2023-05-16T21:00:04.652Z,4.85
2023-05-16T21:02:34.725Z,5.00
2023-05-16T21:05:19.655Z,5.40
2023-05-16T21:07:54.016Z,5.30
2023-05-16T21:10:22.834Z,5.35
2023-05-16T21:12:51.594Z,5.43
2023-05-16T21:15:23.204Z,5.22
2023-05-16T21:17:53.748Z,5.13
2023-05-16T21:20:22.073Z,5.65
2023-05-16T21:22:50.492Z,5.22
2023-05-16T21:25:19.334Z,5.38
2023-05-16T21:27:47.640Z,4.82
2023-05-16T21:30:16.335Z,5.43
2023-05-16T21:32:44.683Z,5.25
2023-05-16T21:35:14.423Z,4.65
2023-05-16T21:37:42.743Z,5.05
2023-05-16T21:40:14.768Z,4.43
2023-05-16T21:42:43.066Z,5.53
2023-05-16T21:45:15.870Z,5.60
2023-05-16T21:47:44.293Z,4.72
2023-05-16T21:50:14.336Z,4.60
2023-05-16T21:52:42.900Z,4.38
2023-05-16T21:55:11.696Z,4.65
2023-05-16T21:57:40.053Z,5.07
2023-05-16T22:00:09.987Z,5.18
2023-05-16T22:02:38.746Z,5.03
2023-05-16T22:05:08.130Z,4.57
2023-05-16T22:07:38.314Z,5.07
2023-05-16T22:10:07.908Z,5.28
2023-05-16T22:12:36.238Z,4.68
2023-05-16T22:15:04.995Z,4.75
2023-05-16T22:17:33.321Z,4.35
2023-05-16T22:20:02.621Z,4.65
2023-05-16T22:22:31.040Z,4.47
2023-05-16T22:25:01.251Z,4.25
2023-05-16T22:27:29.580Z,5.10
2023-05-16T22:29:57.927Z,4.45
2023-05-16T22:32:26.345Z,4.85
2023-05-16T22:34:54.624Z,5.05
2023-05-16T22:37:22.682Z,4.88
2023-05-16T22:39:51.383Z,4.90
2023-05-16T22:42:20.844Z,4.05
2023-05-16T22:44:48.885Z,4.40
2023-05-16T22:47:16.944Z,4.10
2023-05-16T22:49:45.040Z,4.30
2023-05-16T22:52:13.076Z,4.72
2023-05-16T22:54:42.103Z,4.03
2023-05-16T22:57:10.190Z,4.18
2023-05-16T22:59:39.681Z,4.15
2023-05-16T23:02:07.758Z,4.32
2023-05-16T23:04:35.862Z,4.20
2023-05-16T23:07:03.984Z,4.28
2023-05-16T23:09:32.080Z,3.83
2023-05-16T23:12:00.277Z,4.10
2023-05-16T23:14:28.448Z,4.20
2023-05-16T23:16:57.898Z,4.07
2023-05-16T23:19:26.231Z,4.35
2023-05-16T23:21:54.351Z,4.53
2023-05-16T23:24:22.717Z,4.43
2023-05-16T23:26:50.853Z,4.82
2023-05-16T23:29:18.945Z,4.55
2023-05-16T23:31:47.419Z,4.53
2023-05-16T23:34:16.843Z,4.43
2023-05-16T23:36:44.956Z,4.28
2023-05-16T23:39:13.086Z,3.78
2023-05-16T23:41:41.167Z,4.28
2023-05-16T23:44:09.209Z,3.97
2023-05-16T23:46:37.258Z,3.90
2023-05-16T23:49:05.343Z,3.63
2023-05-16T23:51:45.319Z,3.95
2023-05-16T23:54:22.811Z,4.40
2023-05-16T23:56:51.093Z,4.20
2023-05-16T23:59:19.957Z,4.22
